Time;durP1;ratioP1;P1;durP2;ratioP2;P2;SDS_P1;SDS_P2;PMS_P1;PMS_P2;Temp;Humidity;BMP_temperature;BMP_pressure;BME280_temperature;BME280_humidity;BME280_pressure;Samples;Min_cycle;Max_cycle;Signal;HPM_P1;HPM_P2
2021/12/29 00:01:38;;;;;;;;;10.50;4.25;;;;;11.80;67.93;100118.44;5058976;28;47565;-76
2021/12/29 00:04:03;;;;;;;;;5.00;4.25;;;;;11.53;67.10;100072.00;5058763;28;45299;-76
2021/12/29 00:06:29;;;;;;;;;2.50;1.00;;;;;11.79;67.55;100131.63;5059324;28;45239;-76
2021/12/29 00:08:55;;;;;;;;;8.00;6.75;;;;;11.75;67.33;100125.50;5058464;28;45316;-76
2021/12/29 00:11:21;;;;;;;;;7.50;3.25;;;;;11.58;67.92;100099.25;5058737;28;45809;-76
2021/12/29 00:13:47;;;;;;;;;8.25;5.00;;;;;11.52;68.00;100093.13;5058892;28;45330;-74
2021/12/29 00:16:13;;;;;;;;;5.75;4.75;;;;;11.85;67.84;100153.63;5058731;28;45504;-76
2021/12/29 00:18:38;;;;;;;;;6.25;3.00;;;;;11.71;66.77;100144.88;5059621;28;45413;-75
2021/12/29 00:21:06;;;;;;;;;9.75;3.50;;;;;11.64;67.74;100144.06;5058887;28;46398;-77
2021/12/29 00:23:31;;;;;;;;;10.75;3.00;;;;;11.84;66.88;100165.06;5058989;28;45468;-76
2021/12/29 00:25:57;;;;;;;;;6.50;5.25;;;;;11.80;67.65;100179.16;5059211;28;45258;-76
2021/12/29 00:28:22;;;;;;;;;10.00;7.00;;;;;11.80;67.45;100181.78;5059397;28;45409;-76
2021/12/29 00:30:48;;;;;;;;;4.75;2.75;;;;;11.83;67.48;100196.75;5058709;28;46515;-76
2021/12/29 00:33:14;;;;;;;;;4.50;3.00;;;;;11.86;67.31;100196.72;5058981;28;45374;-75
2021/12/29 00:35:41;;;;;;;;;12.00;4.00;;;;;11.80;67.54;100194.97;5059111;28;45254;-75
2021/12/29 00:38:07;;;;;;;;;5.00;4.00;;;;;11.79;67.67;100190.56;5058813;28;45450;-75
2021/12/29 00:40:34;;;;;;;;;2.00;1.00;;;;;11.81;67.64;100199.38;5058597;28;45342;-75
2021/12/29 00:43:01;;;;;;;;;5.75;5.25;;;;;11.81;67.32;100203.78;5058712;28;45393;-75
2021/12/29 00:45:27;;;;;;;;;4.25;3.00;;;;;11.82;68.34;100221.34;5058558;28;45249;-75
2021/12/29 00:47:53;;;;;;;;;7.00;6.75;;;;;11.79;67.89;100219.59;5058639;28;45294;-76
2021/12/29 00:50:20;;;;;;;;;9.75;6.75;;;;;11.77;67.92;100224.00;5058441;28;45498;-76
2021/12/29 00:52:46;;;;;;;;;10.75;7.00;;;;;11.69;67.81;100200.28;5058341;28;45396;-75
2021/12/29 00:55:14;;;;;;;;;9.75;7.75;;;;;11.78;68.67;100224.88;5058656;28;45350;-75
2021/12/29 00:57:40;;;;;;;;;4.50;2.50;;;;;11.76;68.27;100219.63;5058404;28;45431;-76
2021/12/29 01:00:08;;;;;;;;;5.50;5.00;;;;;11.76;68.82;100221.38;5058383;28;45252;-76
2021/12/29 01:02:34;;;;;;;;;9.25;6.25;;;;;11.75;68.49;100215.22;5058349;28;45296;-75
2021/12/29 01:04:59;;;;;;;;;4.50;3.75;;;;;11.74;68.60;100212.59;5058378;28;45180;-76
2021/12/29 01:07:25;;;;;;;;;7.00;5.00;;;;;11.75;69.26;100215.22;5058774;28;45607;-75
2021/12/29 01:09:50;;;;;;;;;12.75;6.00;;;;;11.77;69.79;100213.44;5058097;28;46529;-75
2021/12/29 01:12:16;;;;;;;;;9.25;5.75;;;;;11.69;69.03;100202.06;5058323;28;45251;-76
2021/12/29 01:14:44;;;;;;;;;8.00;6.25;;;;;11.75;69.74;100212.59;5058439;28;45342;-75
2021/12/29 01:17:10;;;;;;;;;10.00;6.00;;;;;11.69;69.50;100212.59;5058452;28;45525;-76
2021/12/29 01:19:36;;;;;;;;;12.50;4.00;;;;;11.76;69.17;100224.88;5057974;28;46444;-76
2021/12/29 01:22:03;;;;;;;;;5.75;5.00;;;;;11.66;69.60;100210.88;5057721;28;45231;-76
2021/12/29 01:24:30;;;;;;;;;6.50;2.75;;;;;11.78;69.21;100236.31;5058422;28;45441;-76
2021/12/29 01:26:58;;;;;;;;;8.00;5.50;;;;;11.78;69.30;100235.44;5058070;28;45302;-75
2021/12/29 01:29:26;;;;;;;;;5.00;3.00;;;;;11.71;69.41;100227.53;5057940;28;46368;-76
2021/12/29 01:31:52;;;;;;;;;5.00;5.00;;;;;11.76;69.70;100234.56;5057646;28;45194;-76
2021/12/29 01:34:18;;;;;;;;;8.50;4.75;;;;;11.62;69.61;100209.13;5057912;28;45340;-76
2021/12/29 01:36:43;;;;;;;;;6.25;4.75;;;;;11.61;70.36;100211.78;5058298;28;45498;-76
2021/12/29 01:39:12;;;;;;;;;9.75;4.75;;;;;11.73;69.93;100221.41;5057432;28;45662;-76
2021/12/29 01:41:38;;;;;;;;;8.50;4.00;;;;;11.75;69.76;100232.81;5057795;28;45519;-75
2021/12/29 01:44:05;;;;;;;;;11.25;6.25;;;;;11.65;70.52;100214.41;5058097;28;45330;-75
2021/12/29 01:46:31;;;;;;;;;4.00;3.00;;;;;11.69;70.76;100223.16;5057726;28;45232;-76
2021/12/29 01:48:56;;;;;;;;;12.00;8.50;;;;;11.61;71.18;100214.41;5057147;28;45236;-76
2021/12/29 01:51:22;;;;;;;;;7.75;5.00;;;;;11.66;70.70;100226.72;5057641;28;45435;-76
2021/12/29 01:54:01;;;;;;;;;5.75;4.00;;;;;11.56;70.81;100210.94;5057857;28;45161;-76
2021/12/29 01:56:28;;;;;;;;;6.25;4.00;;;;;11.74;71.00;100239.00;5057963;28;45264;-76
2021/12/29 01:58:53;;;;;;;;;8.50;3.75;;;;;11.74;70.65;100233.72;5057632;28;45461;-76
2021/12/29 02:01:19;;;;;;;;;7.25;6.00;;;;;11.76;70.82;100238.09;5057444;28;45310;-76
2021/12/29 02:03:45;;;;;;;;;10.50;8.00;;;;;11.69;70.90;100231.94;5056143;28;45339;-76
2021/12/29 02:06:10;;;;;;;;;6.50;4.50;;;;;11.69;71.22;100233.72;5057591;28;45478;-75
2021/12/29 02:08:36;;;;;;;;;6.50;4.25;;;;;11.79;70.70;100261.81;5057645;28;45315;-76
2021/12/29 02:11:04;;;;;;;;;8.75;5.50;;;;;11.53;70.97;100214.44;5057280;28;45189;-76
2021/12/29 02:13:29;;;;;;;;;7.75;6.75;;;;;11.77;70.85;100255.66;5057722;28;45222;-76
2021/12/29 02:15:55;;;;;;;;;8.00;6.00;;;;;11.74;70.76;100239.00;5057231;28;45378;-76
2021/12/29 02:18:21;;;;;;;;;9.00;5.00;;;;;11.71;70.84;100227.53;5057371;28;45346;-76
2021/12/29 02:20:50;;;;;;;;;6.00;4.75;;;;;11.77;71.37;100237.19;5057664;28;45369;-76
2021/12/29 02:23:21;;;;;;;;;10.25;8.25;;;;;11.78;71.00;100231.03;5057254;28;45231;-76
2021/12/29 02:25:55;;;;;;;;;4.00;4.00;;;;;11.65;70.76;100209.13;5057374;28;45833;-76
2021/12/29 02:28:33;;;;;;;;;8.50;3.25;;;;;11.78;70.42;100236.31;5056945;28;47251;-76
2021/12/29 02:30:59;;;;;;;;;7.50;4.25;;;;;11.81;70.97;100246.88;5057253;28;45448;-75
2021/12/29 02:33:27;;;;;;;;;8.75;3.75;;;;;11.79;70.41;100256.53;5040958;28;45423;-76
2021/12/29 02:35:53;;;;;;;;;9.50;4.50;;;;;11.77;71.41;100255.66;5061079;28;45207;-75
2021/12/29 02:38:44;;;;;;;;;5.75;4.00;;;;;11.75;71.81;100253.94;5060417;28;46263;-75
2021/12/29 02:41:10;;;;;;;;;6.00;6.00;;;;;11.54;71.99;100213.59;5060336;28;45385;-75
2021/12/29 02:43:40;;;;;;;;;5.50;4.00;;;;;11.62;71.19;100230.22;5060954;28;45152;-76
2021/12/29 02:46:11;;;;;;;;;5.50;5.50;;;;;11.47;71.25;100198.66;5061143;28;45277;-76
2021/12/29 02:48:40;;;;;;;;;12.75;4.75;;;;;11.59;71.70;100219.69;5060252;28;46060;-75
2021/12/29 02:51:08;;;;;;;;;6.00;4.00;;;;;11.66;71.55;100236.38;5060462;28;45381;-76
2021/12/29 02:53:35;;;;;;;;;14.00;5.00;;;;;11.70;71.41;100236.34;5060503;28;45252;-76
2021/12/29 02:56:01;;;;;;;;;7.75;4.00;;;;;11.70;72.13;100232.81;5060663;28;45320;-76
2021/12/29 02:58:27;;;;;;;;;2.75;2.75;;;;;11.65;71.43;100224.97;5060581;28;45549;-75
2021/12/29 03:00:54;;;;;;;;;5.75;5.75;;;;;11.70;71.84;100238.09;5060413;28;45343;-75
2021/12/29 03:03:22;;;;;;;;;11.50;5.00;;;;;11.75;71.59;100251.28;5060324;28;45417;-75
2021/12/29 03:05:48;;;;;;;;;4.00;2.25;;;;;11.76;71.53;100247.75;5060564;28;45258;-76
2021/12/29 03:08:16;;;;;;;;;8.50;4.00;;;;;11.73;71.99;100242.50;5060007;28;46856;-76
2021/12/29 03:10:43;;;;;;;;;14.00;6.25;;;;;11.73;71.90;100242.50;5060443;28;45431;-75
2021/12/29 03:13:09;;;;;;;;;3.00;3.00;;;;;11.75;72.32;100231.06;5060321;28;45231;-75
2021/12/29 03:15:35;;;;;;;;;4.50;4.00;;;;;11.80;71.80;100245.13;5060170;28;45359;-76
2021/12/29 03:18:02;;;;;;;;;9.50;5.25;;;;;11.78;71.17;100249.50;5042109;28;46349;-75
2021/12/29 03:20:27;;;;;;;;;5.00;4.00;;;;;11.79;71.68;100243.34;5059758;28;45322;-75
2021/12/29 03:22:54;;;;;;;;;4.75;4.75;;;;;11.71;72.17;100229.31;5060027;28;45290;-76
2021/12/29 03:25:21;;;;;;;;;5.00;3.25;;;;;11.83;71.54;100239.84;5060250;28;45366;-76
2021/12/29 03:27:46;;;;;;;;;8.00;2.75;;;;;11.82;72.09;100237.19;5059536;28;47374;-76
2021/12/29 03:30:12;;;;;;;;;4.00;4.00;;;;;11.81;71.83;100236.31;5059648;28;45200;-76
2021/12/29 03:32:48;;;;;;;;;3.25;3.25;;;;;11.80;72.86;100225.78;5059933;28;45405;-75
2021/12/29 03:35:14;;;;;;;;;7.50;4.00;;;;;11.68;72.93;100230.19;5060079;28;45276;-76
2021/12/29 03:37:39;;;;;;;;;3.25;1.00;;;;;11.64;72.66;100222.34;5059581;28;46052;-75
2021/12/29 03:40:06;;;;;;;;;10.00;4.25;;;;;11.74;72.59;100234.59;5059990;28;45526;-75
2021/12/29 03:42:32;;;;;;;;;5.50;2.75;;;;;11.76;72.61;100230.16;5059906;28;45381;-76
2021/12/29 03:44:58;;;;;;;;;4.75;4.75;;;;;11.66;72.85;100218.78;5059722;28;45417;-76
2021/12/29 03:47:23;;;;;;;;;8.75;3.75;;;;;11.74;73.80;100239.00;5059476;28;46542;-75
2021/12/29 03:49:49;;;;;;;;;4.25;3.00;;;;;11.59;73.65;100222.34;5059446;28;45299;-76
2021/12/29 03:52:14;;;;;;;;;4.00;2.00;;;;;11.65;73.63;100239.91;5057948;28;45373;-75
2021/12/29 03:54:40;;;;;;;;;4.50;4.50;;;;;11.68;73.95;100243.41;5059628;28;45421;-76
2021/12/29 03:57:05;;;;;;;;;6.00;3.25;;;;;11.61;73.92;100223.19;5059457;28;45760;-75
2021/12/29 03:59:31;;;;;;;;;1.50;1.00;;;;;11.67;73.82;100231.09;5059530;28;45456;-75
2021/12/29 04:01:56;;;;;;;;;16.50;8.50;;;;;11.66;73.53;100225.84;5059486;28;45235;-76
2021/12/29 04:04:22;;;;;;;;;8.50;4.00;;;;;11.58;74.19;100214.44;5059725;28;45217;-75
2021/12/29 04:06:49;;;;;;;;;9.25;3.25;;;;;11.60;74.07;100215.28;5059389;28;45505;-76
2021/12/29 04:09:15;;;;;;;;;6.25;3.25;;;;;11.62;73.74;100213.53;5059254;28;45432;-76
2021/12/29 04:11:40;;;;;;;;;4.00;2.50;;;;;11.66;73.94;100218.78;5059358;28;45412;-75
2021/12/29 04:14:06;;;;;;;;;7.50;4.00;;;;;11.56;74.01;100210.94;5059420;28;45334;-75
2021/12/29 04:16:36;;;;;;;;;3.75;3.75;;;;;11.57;74.04;100226.75;5059026;28;46724;-76
2021/12/29 04:19:17;;;;;;;;;2.75;2.75;;;;;11.62;74.39;100232.88;5059344;28;45347;-76
2021/12/29 04:21:47;;;;;;;;;5.00;4.00;;;;;11.59;74.81;100227.63;5059028;28;45392;-76
2021/12/29 04:24:13;;;;;;;;;7.00;4.00;;;;;11.60;75.05;100220.56;5058988;28;45501;-75
2021/12/29 04:26:39;;;;;;;;;6.50;5.00;;;;;11.53;74.82;100217.06;5058631;28;46211;-75
2021/12/29 04:29:07;;;;;;;;;2.00;2.00;;;;;11.57;75.01;100223.25;5059360;28;45320;-75
2021/12/29 04:31:33;;;;;;;;;4.75;3.00;;;;;11.40;75.28;100204.84;5059192;28;45347;-75
2021/12/29 04:33:58;;;;;;;;;4.75;3.00;;;;;11.22;76.35;100183.84;5059079;28;45335;-75
2021/12/29 04:36:24;;;;;;;;;3.50;2.50;;;;;11.50;76.08;100232.94;5058573;28;46031;-75
2021/12/29 04:38:54;;;;;;;;;4.00;2.75;;;;;11.40;76.28;100218.03;5058604;28;45385;-75
2021/12/29 04:41:20;;;;;;;;;3.00;3.00;;;;;11.41;76.83;100211.88;5058682;28;45220;-75
2021/12/29 04:43:46;;;;;;;;;5.00;3.25;;;;;11.34;76.92;100208.38;5058616;28;45375;-74
2021/12/29 04:46:16;;;;;;;;;2.75;2.75;;;;;11.45;76.50;100225.91;5058383;28;46282;-76
2021/12/29 04:48:50;;;;;;;;;3.75;3.00;;;;;11.32;77.32;100204.88;5058617;28;45338;-75
2021/12/29 04:51:22;;;;;;;;;3.00;3.00;;;;;11.39;76.50;100217.16;5058607;28;45330;-76
2021/12/29 04:53:48;;;;;;;;;2.00;2.00;;;;;11.31;78.03;100200.50;5059090;28;45358;-75
2021/12/29 04:56:15;;;;;;;;;6.50;3.00;;;;;11.32;77.60;100204.00;5057712;28;46389;-75
2021/12/29 04:58:41;;;;;;;;;2.50;2.25;;;;;11.31;77.83;100205.75;5058646;28;45309;-75
2021/12/29 05:01:07;;;;;;;;;2.00;2.00;;;;;11.25;77.45;100192.59;5058503;28;45278;-75
2021/12/29 05:03:32;;;;;;;;;3.00;2.50;;;;;11.23;78.93;100194.38;5058295;28;45370;-75
2021/12/29 05:08:24;;;;;;;;;3.50;1.25;;;;;11.31;78.46;100208.41;5058335;28;46243;-76
2021/12/29 05:08:43;;;;;;;;;3.00;2.75;;;;;11.22;78.94;100189.97;5057971;28;45173;-75
2021/12/29 05:11:13;;;;;;;;;4.00;3.00;;;;;11.29;79.56;100211.94;5058097;28;45509;-76
2021/12/29 05:13:42;;;;;;;;;3.50;2.25;;;;;11.31;79.46;100208.41;5058548;28;45317;-75
2021/12/29 05:16:08;;;;;;;;;4.00;2.00;;;;;11.34;79.44;100203.09;5057803;28;47057;-76
2021/12/29 05:18:35;;;;;;;;;3.50;1.75;;;;;11.34;78.97;100197.81;5058155;28;45657;-75
2021/12/29 05:21:02;;;;;;;;;3.00;1.50;;;;;11.35;79.59;100188.16;5058384;28;45345;-76
2021/12/29 05:23:27;;;;;;;;;4.75;3.50;;;;;11.27;79.40;100177.66;5058248;28;45241;-75
2021/12/29 05:25:54;;;;;;;;;3.00;1.00;;;;;11.17;79.45;100164.50;5057960;28;45549;-75
2021/12/29 05:28:19;;;;;;;;;1.50;1.50;;;;;11.20;79.67;100170.66;5057922;28;45407;-75
2021/12/29 05:30:46;;;;;;;;;2.25;1.75;;;;;11.31;79.64;100187.31;5058031;28;45377;-75
2021/12/29 05:33:12;;;;;;;;;1.00;1.00;;;;;11.27;80.17;100174.16;5057873;28;45207;-76
2021/12/29 05:35:38;;;;;;;;;3.00;1.50;;;;;11.29;80.33;100180.28;5057938;28;45262;-76
2021/12/29 05:38:03;;;;;;;;;4.25;3.75;;;;;11.22;80.73;100168.00;5058155;28;45324;-75
2021/12/29 05:40:29;;;;;;;;;2.25;1.00;;;;;11.27;80.81;100171.53;5057832;28;45349;-75
2021/12/29 05:42:56;;;;;;;;;1.25;1.25;;;;;11.28;80.25;100176.78;5058016;28;45448;-75
2021/12/29 05:45:22;;;;;;;;;2.75;2.75;;;;;11.23;80.90;100172.41;5057676;28;46560;-76
2021/12/29 05:47:48;;;;;;;;;6.75;2.00;;;;;11.20;82.09;100175.06;5057443;28;45402;-77
2021/12/29 05:50:17;;;;;;;;;3.00;3.00;;;;;11.20;83.01;100172.41;5057694;28;45378;-75
2021/12/29 05:52:42;;;;;;;;;4.50;3.00;;;;;11.08;82.19;100155.78;5057734;28;45453;-76
2021/12/29 05:55:08;;;;;;;;;4.00;3.00;;;;;11.07;82.67;100146.13;5057396;28;46301;-76
2021/12/29 05:57:34;;;;;;;;;6.25;6.25;;;;;11.03;82.72;100141.72;5057542;28;45306;-76
2021/12/29 06:00:00;;;;;;;;;4.00;3.75;;;;;11.12;83.64;100152.22;5057809;28;45204;-76
2021/12/29 06:02:25;;;;;;;;;5.25;5.25;;;;;11.07;82.42;100155.75;5057883;28;45297;-76
2021/12/29 06:04:50;;;;;;;;;4.75;4.75;;;;;11.06;83.81;100154.00;5057296;28;46479;-76
2021/12/29 06:07:16;;;;;;;;;5.25;5.25;;;;;10.96;84.01;100145.25;5057484;28;45417;-76
2021/12/29 06:09:42;;;;;;;;;5.25;4.00;;;;;11.10;83.16;100169.81;5057522;28;45349;-76
2021/12/29 06:12:08;;;;;;;;;6.75;6.75;;;;;11.09;83.87;100152.25;5057407;28;45236;-76
2021/12/29 06:14:34;;;;;;;;;8.25;5.25;;;;;11.09;82.89;100161.94;5057280;28;46478;-76
2021/12/29 06:16:59;;;;;;;;;8.75;8.00;;;;;11.03;84.74;100149.63;5057401;28;45326;-77
2021/12/29 06:19:25;;;;;;;;;8.25;8.25;;;;;11.02;84.29;100153.16;5057328;28;45374;-76
2021/12/29 06:21:50;;;;;;;;;6.25;5.25;;;;;10.96;83.62;100139.13;5057523;28;45256;-77
2021/12/29 06:24:16;;;;;;;;;9.25;7.50;;;;;11.13;84.66;100161.00;5057460;28;45476;-77
2021/12/29 06:26:41;;;;;;;;;7.25;7.25;;;;;11.11;84.29;100160.16;5057375;28;45200;-77
2021/12/29 06:29:07;;;;;;;;;9.00;7.50;;;;;10.98;84.04;100138.25;5057435;28;45227;-77
2021/12/29 06:31:33;;;;;;;;;6.50;6.50;;;;;11.07;83.88;100166.31;5057604;28;45224;-76
2021/12/29 06:33:59;;;;;;;;;7.25;4.25;;;;;11.06;84.20;100157.53;5056953;28;45462;-76
2021/12/29 06:36:24;;;;;;;;;8.50;7.00;;;;;11.04;84.98;100159.28;5056971;28;45255;-77
2021/12/29 06:38:50;;;;;;;;;10.75;7.25;;;;;10.94;83.51;100144.41;5056777;28;45628;-77
2021/12/29 06:41:16;;;;;;;;;7.25;7.25;;;;;10.91;84.25;100130.38;5057017;28;45410;-77
2021/12/29 06:43:41;;;;;;;;;8.00;8.00;;;;;11.11;84.40;100158.38;5056402;28;45429;-76
2021/12/29 06:46:07;;;;;;;;;8.00;8.00;;;;;11.12;83.28;100154.00;5056759;28;45355;-76
2021/12/29 06:48:32;;;;;;;;;4.75;4.50;;;;;11.15;84.18;100161.88;5056795;28;45614;-77
2021/12/29 06:50:58;;;;;;;;;8.00;4.75;;;;;10.94;84.35;100125.06;5038771;28;45518;-76
2021/12/29 06:53:23;;;;;;;;;12.00;6.00;;;;;10.86;84.49;100109.28;5056804;28;45468;-77
2021/12/29 06:55:50;;;;;;;;;3.25;3.25;;;;;11.02;84.34;100152.28;5056815;28;45381;-77
2021/12/29 06:58:15;;;;;;;;;5.00;5.00;;;;;11.15;84.98;100161.88;5056766;28;45349;-77
2021/12/29 07:00:41;;;;;;;;;6.75;5.00;;;;;11.10;84.55;100155.75;5057060;28;45394;-78
2021/12/29 07:03:06;;;;;;;;;7.00;5.00;;;;;11.02;84.97;100137.34;5056530;28;46326;-77
2021/12/29 07:05:32;;;;;;;;;8.25;7.00;;;;;11.00;84.59;100141.75;5056660;28;45229;-77
2021/12/29 07:07:58;;;;;;;;;6.75;4.75;;;;;11.06;84.70;100149.59;5057294;28;45214;-77
2021/12/29 07:10:24;;;;;;;;;3.75;2.75;;;;;10.98;84.90;100135.63;5057172;28;45201;-77
2021/12/29 07:12:49;;;;;;;;;7.75;7.75;;;;;11.04;84.74;100154.03;5056512;28;45674;-77
2021/12/29 07:15:16;;;;;;;;;5.00;3.00;;;;;10.92;84.30;100124.22;5056438;28;45273;-77
2021/12/29 07:17:42;;;;;;;;;4.50;4.00;;;;;11.10;85.30;100164.56;5056722;28;45326;-77
2021/12/29 07:20:08;;;;;;;;;5.75;5.75;;;;;10.86;84.91;100117.19;5059690;28;45239;-77
2021/12/29 07:22:33;;;;;;;;;6.25;4.25;;;;;10.64;85.25;100083.91;5059607;28;46803;-78
2021/12/29 07:24:59;;;;;;;;;6.25;6.25;;;;;10.65;85.74;100089.19;5060290;28;45429;-77
2021/12/29 07:27:24;;;;;;;;;7.00;7.00;;;;;11.02;85.54;100145.25;5060145;28;45452;-78
2021/12/29 07:29:50;;;;;;;;;8.25;6.25;;;;;11.16;85.65;100158.34;5060387;28;45263;-77
2021/12/29 07:32:15;;;;;;;;;12.25;8.25;;;;;10.88;84.79;100115.41;5059918;28;45797;-78
2021/12/29 07:34:40;;;;;;;;;8.00;7.75;;;;;11.12;86.07;100157.50;5059923;28;45376;-77
2021/12/29 07:37:06;;;;;;;;;10.00;9.75;;;;;11.12;85.02;100157.50;5059924;28;45286;-77
2021/12/29 07:39:32;;;;;;;;;9.25;8.50;;;;;11.01;86.04;100135.59;5060027;28;45329;-78
2021/12/29 07:41:57;;;;;;;;;8.00;8.00;;;;;10.93;86.02;100123.31;5059746;28;45423;-77
2021/12/29 07:44:25;;;;;;;;;5.25;5.25;;;;;11.00;85.11;100154.06;5059909;28;45327;-77
2021/12/29 07:46:56;;;;;;;;;5.00;5.00;;;;;11.01;85.66;100150.53;5059560;28;45491;-77
2021/12/29 07:49:23;;;;;;;;;6.50;6.50;;;;;11.13;86.35;100171.56;5059869;28;45234;-77
2021/12/29 07:51:49;;;;;;;;;10.50;7.50;;;;;11.07;86.92;100155.75;5059166;28;47565;-77
2021/12/29 07:54:15;;;;;;;;;5.75;5.75;;;;;11.08;86.40;100168.97;5059648;28;45354;-78
2021/12/29 07:56:42;;;;;;;;;9.00;8.00;;;;;11.17;85.68;100180.31;5059434;28;45230;-77
2021/12/29 07:59:07;;;;;;;;;8.00;7.00;;;;;11.06;85.69;100165.44;5059822;28;45308;-77
2021/12/29 08:01:33;;;;;;;;;6.25;6.25;;;;;11.17;85.38;100172.41;5059265;28;45420;-77
2021/12/29 08:03:58;;;;;;;;;6.75;6.75;;;;;11.16;86.46;100160.13;5058882;28;45399;-77
2021/12/29 08:06:24;;;;;;;;;7.25;3.50;;;;;11.16;85.90;100175.94;5059449;28;45256;-78
2021/12/29 08:08:49;;;;;;;;;10.00;5.50;;;;;11.01;86.41;100156.69;5059657;28;45290;-77
2021/12/29 08:11:16;;;;;;;;;9.25;7.75;;;;;11.11;86.42;100174.22;5059384;28;46659;-77
2021/12/29 08:13:42;;;;;;;;;6.25;3.25;;;;;11.30;86.36;100192.59;5059392;28;45417;-77
2021/12/29 08:16:08;;;;;;;;;7.00;7.00;;;;;11.25;87.37;100197.88;5059083;28;45328;-78
2021/12/29 08:18:33;;;;;;;;;11.75;11.00;;;;;11.17;86.74;100178.59;5059565;28;45187;-77
2021/12/29 08:20:59;;;;;;;;;7.25;7.25;;;;;11.28;86.91;100205.78;5059113;28;46399;-77
2021/12/29 08:23:24;;;;;;;;;9.00;9.00;;;;;11.22;87.05;100191.75;5058780;28;45323;-78
2021/12/29 08:25:50;;;;;;;;;11.50;10.25;;;;;11.33;87.45;100204.00;5059615;28;45162;-78
2021/12/29 08:28:15;;;;;;;;;8.75;8.00;;;;;11.21;87.18;100184.72;5059176;28;45518;-78
2021/12/29 08:30:41;;;;;;;;;9.75;7.25;;;;;11.17;87.29;100178.59;5057612;28;46620;-78
2021/12/29 08:33:07;;;;;;;;;10.00;10.00;;;;;11.21;87.83;100184.72;5058988;28;45435;-78
2021/12/29 08:35:32;;;;;;;;;9.75;9.75;;;;;11.40;87.18;100225.94;5058795;28;45311;-78
2021/12/29 08:37:58;;;;;;;;;9.75;8.00;;;;;11.30;88.19;100211.91;5024066;28;45527;-77
2021/12/29 08:40:25;;;;;;;;;6.50;6.00;;;;;11.31;88.46;100200.50;5058584;28;46484;-77
2021/12/29 08:42:50;;;;;;;;;8.00;8.00;;;;;11.42;88.01;100216.25;5058490;28;45325;-78
2021/12/29 08:45:18;;;;;;;;;9.25;7.25;;;;;11.45;88.22;100211.00;5058360;28;45389;-77
2021/12/29 08:47:45;;;;;;;;;3.00;3.00;;;;;11.37;88.41;100189.06;5058761;28;45407;-78
2021/12/29 08:50:13;;;;;;;;;9.00;8.25;;;;;11.31;87.39;100168.84;5063548;28;46393;-77
2021/12/29 08:52:40;;;;;;;;;9.00;9.00;;;;;11.50;87.76;100203.91;5059823;28;45333;-77
2021/12/29 08:55:07;;;;;;;;;8.00;8.00;;;;;11.55;87.45;100199.50;5063750;28;45285;-77
2021/12/29 08:57:33;;;;;;;;;8.25;8.25;;;;;11.35;88.33;100165.31;5064706;28;45331;-77
2021/12/29 08:59:59;;;;;;;;;8.75;6.75;;;;;11.60;88.47;100221.44;5059575;28;46295;-78
2021/12/29 09:02:25;;;;;;;;;12.25;9.00;;;;;11.55;87.01;100190.72;5058631;28;45235;-77
2021/12/29 09:04:51;;;;;;;;;7.50;7.50;;;;;11.54;87.42;100192.47;5058458;28;45286;-77
2021/12/29 09:07:17;;;;;;;;;7.00;7.00;;;;;11.58;87.60;100194.22;5058858;28;45335;-77
2021/12/29 09:09:42;;;;;;;;;8.25;8.25;;;;;11.68;87.92;100205.59;5058062;28;45322;-77
2021/12/29 09:12:08;;;;;;;;;9.75;8.00;;;;;11.62;88.28;100180.09;5058437;28;45441;-75
2021/12/29 09:14:34;;;;;;;;;6.75;6.25;;;;;11.74;87.88;100189.72;5058496;28;45401;-77
2021/12/29 09:16:59;;;;;;;;;10.00;10.00;;;;;11.83;87.70;100191.47;5058498;28;45334;-77
2021/12/29 09:19:25;;;;;;;;;10.25;10.00;;;;;11.89;87.70;100191.41;5058167;28;45427;-77
2021/12/29 09:21:53;;;;;;;;;12.75;12.00;;;;;11.66;88.03;100144.91;5058155;28;45452;-78
2021/12/29 09:24:19;;;;;;;;;9.50;9.00;;;;;11.96;87.60;100185.19;5058122;28;45486;-77
2021/12/29 09:26:45;;;;;;;;;8.00;7.25;;;;;12.04;87.99;100191.31;5058089;28;45231;-77
2021/12/29 09:29:10;;;;;;;;;12.00;9.00;;;;;12.07;87.34;100193.03;5057801;28;46581;-77
2021/12/29 09:31:36;;;;;;;;;9.00;9.00;;;;;12.10;88.23;100200.94;5057946;28;45354;-77
2021/12/29 09:34:01;;;;;;;;;8.50;7.75;;;;;12.29;87.82;100220.19;5058068;28;45324;-77
2021/12/29 09:36:27;;;;;;;;;11.00;9.75;;;;;12.24;87.54;100193.78;5058244;28;45417;-77
2021/12/29 09:38:52;;;;;;;;;8.00;8.00;;;;;12.33;87.53;100206.91;5057418;28;47053;-77
2021/12/29 09:41:18;;;;;;;;;8.75;8.75;;;;;12.32;88.37;100197.25;5057809;28;45354;-77
2021/12/29 09:43:45;;;;;;;;;13.00;9.50;;;;;12.33;87.70;100193.72;5057426;28;45268;-77
2021/12/29 09:46:12;;;;;;;;;11.75;10.00;;;;;12.27;87.84;100176.16;5057484;28;45390;-77
2021/12/29 09:48:38;;;;;;;;;10.00;9.00;;;;;12.44;88.34;100194.50;5057258;28;45282;-77
2021/12/29 09:51:06;;;;;;;;;8.50;8.50;;;;;12.46;88.48;100186.53;5022911;28;45271;-77
2021/12/29 09:53:32;;;;;;;;;12.50;7.75;;;;;12.59;88.26;100195.25;5057692;28;45488;-77
2021/12/29 09:55:58;;;;;;;;;9.00;6.25;;;;;12.60;87.97;100189.06;5057761;28;45569;-77
2021/12/29 09:58:23;;;;;;;;;8.50;7.50;;;;;12.52;87.42;100168.88;5057367;28;45428;-77
2021/12/29 10:00:51;;;;;;;;;5.00;5.00;;;;;12.71;87.45;100192.47;5057507;28;45361;-77
2021/12/29 10:03:19;;;;;;;;;10.25;7.00;;;;;12.62;87.51;100168.78;5057470;28;45300;-77
2021/12/29 10:05:51;;;;;;;;;13.50;10.75;;;;;12.80;87.39;100198.56;5057473;28;45215;-77
2021/12/29 10:08:27;;;;;;;;;6.25;6.25;;;;;12.74;87.72;100181.88;5057228;28;46707;-77
2021/12/29 10:10:56;;;;;;;;;11.75;8.25;;;;;12.75;87.78;100170.41;5057360;28;45278;-77
2021/12/29 10:13:22;;;;;;;;;10.00;8.25;;;;;12.82;87.14;100183.53;5057541;28;45358;-77
2021/12/29 10:15:54;;;;;;;;;11.25;9.00;;;;;12.96;87.76;100203.69;5057566;28;45319;-78
2021/12/29 10:18:25;;;;;;;;;6.75;6.25;;;;;12.98;88.22;100194.84;5057388;28;45639;-77
2021/12/29 10:20:52;;;;;;;;;7.00;5.25;;;;;12.86;88.11;100165.03;5057012;28;45321;-77
2021/12/29 10:23:22;;;;;;;;;7.50;7.50;;;;;12.98;87.41;100180.75;5057464;28;45160;-77
2021/12/29 10:25:48;;;;;;;;;5.00;5.00;;;;;13.11;88.19;100206.13;5057343;28;45410;-77
2021/12/29 10:28:26;;;;;;;;;8.75;6.00;;;;;13.13;88.33;100212.31;5056890;28;46454;-77
2021/12/29 10:30:59;;;;;;;;;8.00;6.25;;;;;13.18;88.26;100225.47;5056858;28;45533;-77
2021/12/29 10:33:29;;;;;;;;;9.75;8.25;;;;;13.18;87.94;100206.94;5057096;28;45437;-77
2021/12/29 10:35:55;;;;;;;;;6.00;6.00;;;;;13.18;88.06;100205.19;5056950;28;45504;-77
2021/12/29 10:38:24;;;;;;;;;8.25;8.25;;;;;13.19;88.75;100203.41;5038349;28;45654;-78
2021/12/29 10:40:50;;;;;;;;;5.75;5.00;;;;;13.02;88.53;100164.81;5057092;28;45319;-78
2021/12/29 10:43:16;;;;;;;;;8.00;6.25;;;;;13.12;88.76;100179.72;5057042;28;45465;-77
2021/12/29 10:45:44;;;;;;;;;4.50;4.50;;;;;13.21;89.43;100197.22;5057545;28;45287;-78
2021/12/29 10:48:22;;;;;;;;;5.50;5.50;;;;;13.36;88.93;100209.41;5056333;28;45417;-77
2021/12/29 10:51:04;;;;;;;;;5.00;5.00;;;;;13.11;88.85;100172.63;5056975;28;45527;-77
2021/12/29 10:53:32;;;;;;;;;8.00;6.75;;;;;13.28;89.45;100196.28;5057113;28;45220;-78
2021/12/29 10:55:58;;;;;;;;;14.00;9.75;;;;;13.44;89.37;100218.13;5060410;28;45292;-78
2021/12/29 10:58:26;;;;;;;;;4.75;4.75;;;;;13.47;90.12;100228.66;5060066;28;45444;-77
2021/12/29 11:01:11;;;;;;;;;4.00;4.00;;;;;13.49;89.64;100218.94;5060321;28;45193;-77
2021/12/29 11:03:58;;;;;;;;;5.00;5.00;;;;;13.61;89.37;100234.69;5060544;28;45384;-77
2021/12/29 11:06:25;;;;;;;;;8.00;8.00;;;;;13.57;90.04;100224.13;5060721;28;45143;-78
2021/12/29 11:08:59;;;;;;;;;8.25;8.25;;;;;13.62;90.57;100236.41;5060309;28;45693;-77
2021/12/29 11:11:40;;;;;;;;;8.00;5.50;;;;;13.63;90.35;100235.53;5060015;28;45279;-77
2021/12/29 11:14:22;;;;;;;;;4.25;4.25;;;;;13.74;89.88;100239.78;5042201;28;45502;-78
2021/12/29 11:17:01;;;;;;;;;9.25;9.25;;;;;13.73;91.07;100224.81;5060169;28;45485;-78
2021/12/29 11:19:27;;;;;;;;;9.75;5.25;;;;;13.80;90.19;100227.38;5059993;28;45394;-78
2021/12/29 11:22:05;;;;;;;;;7.25;5.00;;;;;13.96;89.94;100230.69;5059890;28;45338;-79
2021/12/29 11:24:31;;;;;;;;;7.00;5.00;;;;;14.04;90.40;100246.44;5059711;28;45318;-78